sensor_id;sensor_type;location;lat;lon;timestamp;pressure;altitude;pressure_sealevel;temperature;humidity
58686;BME280;44465;53.206;-6.106;2023-11-21T00:02:22;102248.97;;;21.25;51.17
58686;BME280;44465;53.206;-6.106;2023-11-21T00:04:48;102246.31;;;21.23;51.22
58686;BME280;44465;53.206;-6.106;2023-11-21T00:07:14;102257.72;;;21.30;51.12
58686;BME280;44465;53.206;-6.106;2023-11-21T00:09:40;102254.34;;;21.23;50.98
58686;BME280;44465;53.206;-6.106;2023-11-21T00:12:07;102267.75;;;21.23;51.16
58686;BME280;44465;53.206;-6.106;2023-11-21T00:14:38;102283.75;;;21.26;50.88
58686;BME280;44465;53.206;-6.106;2023-11-21T00:17:04;102285.59;;;21.24;51.01
58686;BME280;44465;53.206;-6.106;2023-11-21T00:19:31;102287.41;;;21.23;50.90
58686;BME280;44465;53.206;-6.106;2023-11-21T00:21:57;102274.25;;;21.16;51.16
58686;BME280;44465;53.206;-6.106;2023-11-21T00:24:24;102287.44;;;21.22;50.93
58686;BME280;44465;53.206;-6.106;2023-11-21T00:26:50;102298.13;;;21.23;50.78
58686;BME280;44465;53.206;-6.106;2023-11-21T00:29:16;102293.88;;;21.16;50.79
58686;BME280;44465;53.206;-6.106;2023-11-21T00:31:44;102314.22;;;21.22;50.86
58686;BME280;44465;53.206;-6.106;2023-11-21T00:34:11;102315.25;;;21.18;51.15
58686;BME280;44465;53.206;-6.106;2023-11-21T00:36:37;102317.84;;;21.21;50.80
58686;BME280;44465;53.206;-6.106;2023-11-21T00:39:03;102295.75;;;21.14;50.97
58686;BME280;44465;53.206;-6.106;2023-11-21T00:41:29;102301.88;;;21.18;51.08
58686;BME280;44465;53.206;-6.106;2023-11-21T00:43:54;102293.09;;;21.13;50.99
58686;BME280;44465;53.206;-6.106;2023-11-21T00:46:21;102311.59;;;21.20;50.78
58686;BME280;44465;53.206;-6.106;2023-11-21T00:48:47;102299.25;;;21.16;50.94
58686;BME280;44465;53.206;-6.106;2023-11-21T00:51:13;102317.09;;;21.16;50.68
58686;BME280;44465;53.206;-6.106;2023-11-21T00:53:38;102302.34;;;21.02;50.67
58686;BME280;44465;53.206;-6.106;2023-11-21T00:56:05;102331.41;;;21.16;50.86
58686;BME280;44465;53.206;-6.106;2023-11-21T00:58:30;102316.56;;;21.04;50.80
58686;BME280;44465;53.206;-6.106;2023-11-21T01:00:56;102343.03;;;21.15;50.73
58686;BME280;44465;53.206;-6.106;2023-11-21T01:03:21;102349.34;;;21.13;50.70
58686;BME280;44465;53.206;-6.106;2023-11-21T01:05:47;102334.19;;;21.12;50.61
58686;BME280;44465;53.206;-6.106;2023-11-21T01:08:15;102335.94;;;21.13;50.58
58686;BME280;44465;53.206;-6.106;2023-11-21T01:10:41;102347.50;;;21.15;50.80
58686;BME280;44465;53.206;-6.106;2023-11-21T01:13:07;102337.69;;;21.14;50.70
58686;BME280;44465;53.206;-6.106;2023-11-21T01:15:35;102332.34;;;21.14;50.61
58686;BME280;44465;53.206;-6.106;2023-11-21T01:18:01;102334.19;;;21.12;50.27
58686;BME280;44465;53.206;-6.106;2023-11-21T01:20:27;102334.16;;;21.13;50.95
58686;BME280;44465;53.206;-6.106;2023-11-21T01:22:52;102330.72;;;21.10;50.91
58686;BME280;44465;53.206;-6.106;2023-11-21T01:25:20;102346.81;;;21.08;50.75
58686;BME280;44465;53.206;-6.106;2023-11-21T01:27:46;102339.75;;;21.05;50.82
58686;BME280;44465;53.206;-6.106;2023-11-21T01:30:12;102350.25;;;21.12;50.68
58686;BME280;44465;53.206;-6.106;2023-11-21T01:32:38;102354.84;;;21.08;50.55
58686;BME280;44465;53.206;-6.106;2023-11-21T01:35:05;102377.06;;;21.12;50.81
58686;BME280;44465;53.206;-6.106;2023-11-21T01:37:32;102356.94;;;20.98;50.83
58686;BME280;44465;53.206;-6.106;2023-11-21T01:39:58;102378.94;;;21.10;50.69
58686;BME280;44465;53.206;-6.106;2023-11-21T01:42:24;102366.53;;;21.05;50.88
58686;BME280;44465;53.206;-6.106;2023-11-21T01:44:49;102373.66;;;21.06;50.78
58686;BME280;44465;53.206;-6.106;2023-11-21T01:47:16;102387.88;;;21.08;50.71
58686;BME280;44465;53.206;-6.106;2023-11-21T01:49:44;102386.97;;;21.10;50.76
58686;BME280;44465;53.206;-6.106;2023-11-21T01:52:11;102383.44;;;21.07;50.71
58686;BME280;44465;53.206;-6.106;2023-11-21T01:54:37;102369.59;;;20.93;50.82
58686;BME280;44465;53.206;-6.106;2023-11-21T01:57:03;102369.63;;;20.91;50.75
58686;BME280;44465;53.206;-6.106;2023-11-21T01:59:36;102408.53;;;21.05;50.82
58686;BME280;44465;53.206;-6.106;2023-11-21T02:02:06;102410.31;;;21.04;50.64
58686;BME280;44465;53.206;-6.106;2023-11-21T02:04:33;102423.72;;;21.04;51.03
58686;BME280;44465;53.206;-6.106;2023-11-21T02:07:00;102424.59;;;21.05;50.70
58686;BME280;44465;53.206;-6.106;2023-11-21T02:09:26;102429.91;;;21.06;50.44
58686;BME280;44465;53.206;-6.106;2023-11-21T02:11:55;102424.75;;;20.99;50.63
58686;BME280;44465;53.206;-6.106;2023-11-21T02:14:21;102427.31;;;21.03;50.57
58686;BME280;44465;53.206;-6.106;2023-11-21T02:16:49;102426.47;;;21.01;50.71
58686;BME280;44465;53.206;-6.106;2023-11-21T02:19:18;102425.53;;;21.02;50.97
58686;BME280;44465;53.206;-6.106;2023-11-21T02:21:45;102427.50;;;20.97;50.60
58686;BME280;44465;53.206;-6.106;2023-11-21T02:24:14;102442.44;;;21.04;50.63
58686;BME280;44465;53.206;-6.106;2023-11-21T02:26:39;102448.72;;;21.03;50.55
58686;BME280;44465;53.206;-6.106;2023-11-21T02:29:06;102430.31;;;20.92;50.62
58686;BME280;44465;53.206;-6.106;2023-11-21T02:31:36;102432.88;;;20.96;50.87
58686;BME280;44465;53.206;-6.106;2023-11-21T02:34:02;102454.09;;;21.03;50.69
58686;BME280;44465;53.206;-6.106;2023-11-21T02:36:28;102447.81;;;21.04;50.55
58686;BME280;44465;53.206;-6.106;2023-11-21T02:38:53;102439.91;;;21.00;50.53
58686;BME280;44465;53.206;-6.106;2023-11-21T02:41:19;102447.88;;;21.01;50.64
58686;BME280;44465;53.206;-6.106;2023-11-21T02:43:45;102454.97;;;21.04;50.64
58686;BME280;44465;53.206;-6.106;2023-11-21T02:46:10;102457.69;;;21.02;50.43
58686;BME280;44465;53.206;-6.106;2023-11-21T02:48:36;102460.38;;;21.02;50.92
58686;BME280;44465;53.206;-6.106;2023-11-21T02:51:01;102472.00;;;21.01;50.78
58686;BME280;44465;53.206;-6.106;2023-11-21T02:53:27;102477.34;;;21.01;50.59
58686;BME280;44465;53.206;-6.106;2023-11-21T02:55:53;102485.53;;;20.97;50.69
58686;BME280;44465;53.206;-6.106;2023-11-21T02:58:18;102467.94;;;20.88;50.78
58686;BME280;44465;53.206;-6.106;2023-11-21T03:00:44;102498.97;;;20.95;50.82
58686;BME280;44465;53.206;-6.106;2023-11-21T03:03:09;102505.09;;;20.99;50.65
58686;BME280;44465;53.206;-6.106;2023-11-21T03:05:35;102514.97;;;20.98;50.72
58686;BME280;44465;53.206;-6.106;2023-11-21T03:08:02;102531.88;;;21.00;50.63
58686;BME280;44465;53.206;-6.106;2023-11-21T03:10:27;102527.44;;;20.99;50.65
58686;BME280;44465;53.206;-6.106;2023-11-21T03:12:53;102533.72;;;20.98;50.53
58686;BME280;44465;53.206;-6.106;2023-11-21T03:15:18;102529.19;;;21.00;50.61
58686;BME280;44465;53.206;-6.106;2023-11-21T03:17:44;102515.91;;;20.96;50.53
58686;BME280;44465;53.206;-6.106;2023-11-21T03:20:10;102519.41;;;20.99;50.59
58686;BME280;44465;53.206;-6.106;2023-11-21T03:22:36;102505.25;;;20.94;50.65
58686;BME280;44465;53.206;-6.106;2023-11-21T03:25:03;102513.22;;;20.96;50.63
58686;BME280;44465;53.206;-6.106;2023-11-21T03:27:30;102517.72;;;20.95;50.68
58686;BME280;44465;53.206;-6.106;2023-11-21T03:29:55;102511.44;;;20.96;50.62
58686;BME280;44465;53.206;-6.106;2023-11-21T03:32:21;102505.28;;;20.92;50.60
58686;BME280;44465;53.206;-6.106;2023-11-21T03:34:57;102515.88;;;20.97;50.52
58686;BME280;44465;53.206;-6.106;2023-11-21T03:37:23;102516.84;;;20.95;50.48
58686;BME280;44465;53.206;-6.106;2023-11-21T03:39:50;102532.88;;;20.96;50.58
58686;BME280;44465;53.206;-6.106;2023-11-21T03:42:16;102527.56;;;20.95;50.74
58686;BME280;44465;53.206;-6.106;2023-11-21T03:44:42;102525.75;;;20.95;50.52
58686;BME280;44465;53.206;-6.106;2023-11-21T03:47:07;102540.00;;;20.96;50.35
58686;BME280;44465;53.206;-6.106;2023-11-21T03:49:33;102525.94;;;20.89;50.43
58686;BME280;44465;53.206;-6.106;2023-11-21T03:51:58;102531.19;;;20.92;50.64
58686;BME280;44465;53.206;-6.106;2023-11-21T03:54:24;102540.91;;;20.96;50.52
58686;BME280;44465;53.206;-6.106;2023-11-21T03:56:49;102534.69;;;20.94;50.60
58686;BME280;44465;53.206;-6.106;2023-11-21T03:59:15;102543.56;;;20.96;50.41
58686;BME280;44465;53.206;-6.106;2023-11-21T04:01:40;102537.44;;;20.91;50.23
58686;BME280;44465;53.206;-6.106;2023-11-21T04:04:06;102534.91;;;20.86;50.42
58686;BME280;44465;53.206;-6.106;2023-11-21T04:06:31;102545.53;;;20.89;50.41
58686;BME280;44465;53.206;-6.106;2023-11-21T04:08:58;102554.34;;;20.95;50.43
58686;BME280;44465;53.206;-6.106;2023-11-21T04:11:24;102544.69;;;20.89;50.44
58686;BME280;44465;53.206;-6.106;2023-11-21T04:13:49;102558.06;;;20.89;50.67
58686;BME280;44465;53.206;-6.106;2023-11-21T04:16:15;102555.47;;;20.86;50.69
58686;BME280;44465;53.206;-6.106;2023-11-21T04:18:40;102560.94;;;20.81;50.61
58686;BME280;44465;53.206;-6.106;2023-11-21T04:21:06;102574.94;;;20.91;50.48
58686;BME280;44465;53.206;-6.106;2023-11-21T04:23:31;102579.50;;;20.87;50.47
58686;BME280;44465;53.206;-6.106;2023-11-21T04:25:57;102576.81;;;20.87;50.41
58686;BME280;44465;53.206;-6.106;2023-11-21T04:28:23;102594.59;;;20.91;50.40
58686;BME280;44465;53.206;-6.106;2023-11-21T04:30:50;102591.06;;;20.89;50.44
58686;BME280;44465;53.206;-6.106;2023-11-21T04:33:15;102592.03;;;20.87;50.30
58686;BME280;44465;53.206;-6.106;2023-11-21T04:35:42;102592.03;;;20.87;50.33
58686;BME280;44465;53.206;-6.106;2023-11-21T04:38:08;102586.69;;;20.87;50.23
58686;BME280;44465;53.206;-6.106;2023-11-21T04:40:33;102596.41;;;20.89;50.48
58686;BME280;44465;53.206;-6.106;2023-11-21T04:42:59;102587.53;;;20.89;50.24
58686;BME280;44465;53.206;-6.106;2023-11-21T04:45:24;102594.63;;;20.90;50.21
58686;BME280;44465;53.206;-6.106;2023-11-21T04:47:50;102569.03;;;20.78;50.33
58686;BME280;44465;53.206;-6.106;2023-11-21T04:50:15;102579.72;;;20.80;50.21
58686;BME280;44465;53.206;-6.106;2023-11-21T04:52:41;102593.75;;;20.89;50.37
58686;BME280;44465;53.206;-6.106;2023-11-21T04:55:07;102602.75;;;20.87;50.36
58686;BME280;44465;53.206;-6.106;2023-11-21T04:57:36;102588.56;;;20.82;50.16
58686;BME280;44465;53.206;-6.106;2023-11-21T05:00:02;102597.53;;;20.81;50.14
58686;BME280;44465;53.206;-6.106;2023-11-21T05:02:34;102617.91;;;20.86;50.33
58686;BME280;44465;53.206;-6.106;2023-11-21T05:05:00;102618.81;;;20.87;50.23
58686;BME280;44465;53.206;-6.106;2023-11-21T05:07:26;102622.47;;;20.83;50.26
58686;BME280;44465;53.206;-6.106;2023-11-21T05:09:56;102634.88;;;20.87;50.11
58686;BME280;44465;53.206;-6.106;2023-11-21T05:12:22;102633.97;;;20.86;50.16
58686;BME280;44465;53.206;-6.106;2023-11-21T05:14:51;102635.84;;;20.84;50.36
58686;BME280;44465;53.206;-6.106;2023-11-21T05:17:16;102608.41;;;20.74;50.17
58686;BME280;44465;53.206;-6.106;2023-11-21T05:19:42;102639.34;;;20.86;50.19
58686;BME280;44465;53.206;-6.106;2023-11-21T05:22:08;102636.78;;;20.82;50.14
58686;BME280;44465;53.206;-6.106;2023-11-21T05:24:34;102635.91;;;20.81;50.09
58686;BME280;44465;53.206;-6.106;2023-11-21T05:27:00;102638.53;;;20.83;50.00
58686;BME280;44465;53.206;-6.106;2023-11-21T05:29:26;102627.94;;;20.80;50.10
58686;BME280;44465;53.206;-6.106;2023-11-21T05:31:51;102639.44;;;20.82;50.20
58686;BME280;44465;53.206;-6.106;2023-11-21T05:34:18;102654.59;;;20.84;50.25
58686;BME280;44465;53.206;-6.106;2023-11-21T05:36:43;102657.28;;;20.83;49.94
58686;BME280;44465;53.206;-6.106;2023-11-21T05:39:11;102663.56;;;20.82;50.21
58686;BME280;44465;53.206;-6.106;2023-11-21T05:41:36;102668.03;;;20.81;50.57
58686;BME280;44465;53.206;-6.106;2023-11-21T05:44:02;102658.28;;;20.79;50.30
58686;BME280;44465;53.206;-6.106;2023-11-21T05:46:27;102665.38;;;20.81;50.23
58686;BME280;44465;53.206;-6.106;2023-11-21T05:48:53;102673.41;;;20.81;50.17
58686;BME280;44465;53.206;-6.106;2023-11-21T05:51:18;102673.41;;;20.81;50.29
58686;BME280;44465;53.206;-6.106;2023-11-21T05:53:44;102681.38;;;20.83;50.03
58686;BME280;44465;53.206;-6.106;2023-11-21T05:56:10;102666.31;;;20.79;50.06
58686;BME280;44465;53.206;-6.106;2023-11-21T05:58:35;102685.88;;;20.82;50.04
58686;BME280;44465;53.206;-6.106;2023-11-21T06:01:01;102684.09;;;20.81;49.99
58686;BME280;44465;53.206;-6.106;2023-11-21T06:03:26;102690.38;;;20.80;49.93
58686;BME280;44465;53.206;-6.106;2023-11-21T06:05:52;102694.88;;;20.80;49.96
58686;BME280;44465;53.206;-6.106;2023-11-21T06:08:17;102684.22;;;20.76;50.19
58686;BME280;44465;53.206;-6.106;2023-11-21T06:10:43;102679.78;;;20.75;50.06
58686;BME280;44465;53.206;-6.106;2023-11-21T06:13:09;102686.91;;;20.76;50.02
58686;BME280;44465;53.206;-6.106;2023-11-21T06:15:36;102687.69;;;20.80;49.74
58686;BME280;44465;53.206;-6.106;2023-11-21T06:18:01;102697.53;;;20.80;49.85
58686;BME280;44465;53.206;-6.106;2023-11-21T06:20:27;102701.13;;;20.79;50.02
58686;BME280;44465;53.206;-6.106;2023-11-21T06:22:52;102680.72;;;20.71;49.94
58686;BME280;44465;53.206;-6.106;2023-11-21T06:25:19;102696.72;;;20.76;50.03
58686;BME280;44465;53.206;-6.106;2023-11-21T06:27:46;102711.91;;;20.75;50.01
58686;BME280;44465;53.206;-6.106;2023-11-21T06:30:13;102724.38;;;20.76;50.03
58686;BME280;44465;53.206;-6.106;2023-11-21T06:32:41;102717.25;;;20.75;49.99
58686;BME280;44465;53.206;-6.106;2023-11-21T06:35:07;102710.28;;;20.68;50.19
58686;BME280;44465;53.206;-6.106;2023-11-21T06:37:33;102727.97;;;20.75;49.90
58686;BME280;44465;53.206;-6.106;2023-11-21T06:40:00;102725.34;;;20.74;50.12
58686;BME280;44465;53.206;-6.106;2023-11-21T06:42:26;102726.22;;;20.74;50.05
58686;BME280;44465;53.206;-6.106;2023-11-21T06:44:52;102720.81;;;20.76;49.73
58686;BME280;44465;53.206;-6.106;2023-11-21T06:47:19;102713.78;;;20.70;50.11
58686;BME280;44465;53.206;-6.106;2023-11-21T06:49:49;102709.28;;;20.74;49.82
58686;BME280;44465;53.206;-6.106;2023-11-21T06:52:14;102711.94;;;20.72;50.01
58686;BME280;44465;53.206;-6.106;2023-11-21T06:54:39;102704.97;;;20.65;49.88
58686;BME280;44465;53.206;-6.106;2023-11-21T06:57:05;102722.66;;;20.72;49.63
58686;BME280;44465;53.206;-6.106;2023-11-21T06:59:30;102729.78;;;20.73;49.71
58686;BME280;44465;53.206;-6.106;2023-11-21T07:01:56;102720.94;;;20.70;49.95
58686;BME280;44465;53.206;-6.106;2023-11-21T07:04:21;102727.16;;;20.70;49.94
58686;BME280;44465;53.206;-6.106;2023-11-21T07:06:47;102725.44;;;20.68;49.85
58686;BME280;44465;53.206;-6.106;2023-11-21T07:09:12;102741.44;;;20.71;50.04
58686;BME280;44465;53.206;-6.106;2023-11-21T07:11:38;102750.34;;;20.71;49.96
58686;BME280;44465;53.206;-6.106;2023-11-21T07:14:04;102758.38;;;20.71;49.82
58686;BME280;44465;53.206;-6.106;2023-11-21T07:16:36;102759.28;;;20.72;49.77
58686;BME280;44465;53.206;-6.106;2023-11-21T07:19:06;102731.97;;;20.56;49.79
58686;BME280;44465;53.206;-6.106;2023-11-21T07:21:32;102753.09;;;20.68;49.63
58686;BME280;44465;53.206;-6.106;2023-11-21T07:24:00;102746.06;;;20.64;49.84
58686;BME280;44465;53.206;-6.106;2023-11-21T07:26:26;102755.88;;;20.64;49.65
58686;BME280;44465;53.206;-6.106;2023-11-21T07:28:52;102770.94;;;20.68;49.99
58686;BME280;44465;53.206;-6.106;2023-11-21T07:31:18;102775.34;;;20.70;49.96
58686;BME280;44465;53.206;-6.106;2023-11-21T07:33:45;102785.13;;;20.71;49.72
58686;BME280;44465;53.206;-6.106;2023-11-21T07:36:13;102785.22;;;20.68;49.88
58686;BME280;44465;53.206;-6.106;2023-11-21T07:38:39;102787.88;;;20.70;49.71
58686;BME280;44465;53.206;-6.106;2023-11-21T07:41:05;102799.50;;;20.69;49.51
58686;BME280;44465;53.206;-6.106;2023-11-21T07:43:33;102804.88;;;20.67;49.77
58686;BME280;44465;53.206;-6.106;2023-11-21T07:46:04;102809.34;;;20.67;49.70
58686;BME280;44465;53.206;-6.106;2023-11-21T07:48:30;102807.53;;;20.69;49.81
58686;BME280;44465;53.206;-6.106;2023-11-21T07:50:57;102811.09;;;20.68;49.84
58686;BME280;44465;53.206;-6.106;2023-11-21T07:53:24;102797.81;;;20.63;50.07
58686;BME280;44465;53.206;-6.106;2023-11-21T07:55:51;102786.31;;;20.59;49.79
58686;BME280;44465;53.206;-6.106;2023-11-21T07:58:17;102803.13;;;20.66;49.90
58686;BME280;44465;53.206;-6.106;2023-11-21T08:00:43;102803.97;;;20.67;49.77
58686;BME280;44465;53.206;-6.106;2023-11-21T08:03:09;102806.66;;;20.68;49.65
58686;BME280;44465;53.206;-6.106;2023-11-21T08:05:34;102810.19;;;20.69;49.89
58686;BME280;44465;53.206;-6.106;2023-11-21T08:08:00;102805.78;;;20.66;49.84
58686;BME280;44465;53.206;-6.106;2023-11-21T08:10:26;102819.19;;;20.66;49.80
58686;BME280;44465;53.206;-6.106;2023-11-21T08:12:51;102826.31;;;20.67;49.77
58686;BME280;44465;53.206;-6.106;2023-11-21T08:15:19;102819.28;;;20.60;49.74
58686;BME280;44465;53.206;-6.106;2023-11-21T08:17:46;102836.09;;;20.68;49.47
58686;BME280;44465;53.206;-6.106;2023-11-21T08:20:12;102834.34;;;20.67;49.78
58686;BME280;44465;53.206;-6.106;2023-11-21T08:22:37;102827.31;;;20.61;49.78
58686;BME280;44465;53.206;-6.106;2023-11-21T08:25:06;102844.19;;;20.65;49.65
58686;BME280;44465;53.206;-6.106;2023-11-21T08:27:33;102852.22;;;20.65;49.71
58686;BME280;44465;53.206;-6.106;2023-11-21T08:30:03;102855.81;;;20.64;49.78
58686;BME280;44465;53.206;-6.106;2023-11-21T08:32:29;102854.91;;;20.65;49.53
58686;BME280;44465;53.206;-6.106;2023-11-21T08:34:57;102862.00;;;20.66;49.66
58686;BME280;44465;53.206;-6.106;2023-11-21T08:37:23;102871.81;;;20.67;49.55
58686;BME280;44465;53.206;-6.106;2023-11-21T08:39:49;102865.56;;;20.68;49.55
58686;BME280;44465;53.206;-6.106;2023-11-21T08:42:15;102858.59;;;20.59;49.53
58686;BME280;44465;53.206;-6.106;2023-11-21T08:44:41;102870.97;;;20.65;49.59
58686;BME280;44465;53.206;-6.106;2023-11-21T08:47:07;102872.69;;;20.68;49.65
58686;BME280;44465;53.206;-6.106;2023-11-21T08:49:32;102877.16;;;20.67;49.30
58686;BME280;44465;53.206;-6.106;2023-11-21T08:51:58;102875.34;;;20.68;49.82
58686;BME280;44465;53.206;-6.106;2023-11-21T08:54:25;102868.47;;;20.56;49.64
58686;BME280;44465;53.206;-6.106;2023-11-21T08:56:54;102889.66;;;20.68;49.55
58686;BME280;44465;53.206;-6.106;2023-11-21T08:59:20;102892.38;;;20.65;49.70
58686;BME280;44465;53.206;-6.106;2023-11-21T09:01:47;102899.50;;;20.66;49.75
58686;BME280;44465;53.206;-6.106;2023-11-21T09:04:12;102895.09;;;20.64;49.57
58686;BME280;44465;53.206;-6.106;2023-11-21T09:06:39;102905.75;;;20.65;49.65
58686;BME280;44465;53.206;-6.106;2023-11-21T09:09:05;102908.44;;;20.65;49.81
58686;BME280;44465;53.206;-6.106;2023-11-21T09:11:34;102910.25;;;20.63;49.61
58686;BME280;44465;53.206;-6.106;2023-11-21T09:14:01;102913.84;;;20.64;49.57
58686;BME280;44465;53.206;-6.106;2023-11-21T09:16:26;102919.16;;;20.65;49.44
58686;BME280;44465;53.206;-6.106;2023-11-21T09:18:52;102912.16;;;20.58;49.76
58686;BME280;44465;53.206;-6.106;2023-11-21T09:21:17;102928.13;;;20.61;49.72
58686;BME280;44465;53.206;-6.106;2023-11-21T09:23:47;102929.84;;;20.65;49.70
58686;BME280;44465;53.206;-6.106;2023-11-21T09:26:13;102913.88;;;20.60;49.76
58686;BME280;44465;53.206;-6.106;2023-11-21T09:28:41;102919.28;;;20.59;49.66
58686;BME280;44465;53.206;-6.106;2023-11-21T09:31:11;102929.84;;;20.65;49.74
58686;BME280;44465;53.206;-6.106;2023-11-21T09:33:37;102919.19;;;20.62;49.27
58686;BME280;44465;53.206;-6.106;2023-11-21T09:36:04;102914.88;;;20.55;49.49
58686;BME280;44465;53.206;-6.106;2023-11-21T09:38:30;102943.19;;;20.67;49.60
58686;BME280;44465;53.206;-6.106;2023-11-21T09:40:56;102932.53;;;20.65;49.65
58686;BME280;44465;53.206;-6.106;2023-11-21T09:43:24;102928.03;;;20.67;49.58
58686;BME280;44465;53.206;-6.106;2023-11-21T09:45:59;102925.31;;;20.69;49.53
58686;BME280;44465;53.206;-6.106;2023-11-21T09:48:26;102933.34;;;20.69;49.50
58686;BME280;44465;53.206;-6.106;2023-11-21T09:50:53;102930.72;;;20.67;49.84
58686;BME280;44465;53.206;-6.106;2023-11-21T09:53:20;102932.47;;;20.68;49.71
58686;BME280;44465;53.206;-6.106;2023-11-21T09:55:47;102925.34;;;20.67;49.61
58686;BME280;44465;53.206;-6.106;2023-11-21T09:58:14;102929.81;;;20.68;49.67
58686;BME280;44465;53.206;-6.106;2023-11-21T10:00:41;102927.19;;;20.65;49.56
58686;BME280;44465;53.206;-6.106;2023-11-21T10:03:07;102934.25;;;20.68;49.78
58686;BME280;44465;53.206;-6.106;2023-11-21T10:05:34;102932.47;;;20.68;49.75
58686;BME280;44465;53.206;-6.106;2023-11-21T10:08:00;102919.19;;;20.62;49.66
58686;BME280;44465;53.206;-6.106;2023-11-21T10:10:27;102918.34;;;20.61;49.62
58686;BME280;44465;53.206;-6.106;2023-11-21T10:12:56;102925.28;;;20.70;49.88
58686;BME280;44465;53.206;-6.106;2023-11-21T10:15:23;102913.78;;;20.65;49.77
58686;BME280;44465;53.206;-6.106;2023-11-21T10:17:53;102932.41;;;20.71;49.63
58686;BME280;44465;53.206;-6.106;2023-11-21T10:20:20;102904.13;;;20.58;49.69
58686;BME280;44465;53.206;-6.106;2023-11-21T10:22:46;102927.13;;;20.67;49.85
58686;BME280;44465;53.206;-6.106;2023-11-21T10:25:12;102927.94;;;20.70;49.79
58686;BME280;44465;53.206;-6.106;2023-11-21T10:27:42;102936.84;;;20.72;49.87
58686;BME280;44465;53.206;-6.106;2023-11-21T10:30:09;102932.38;;;20.73;49.60
58686;BME280;44465;53.206;-6.106;2023-11-21T10:32:38;102920.78;;;20.72;49.66
58686;BME280;44465;53.206;-6.106;2023-11-21T10:35:06;102929.91;;;20.64;49.99
58686;BME280;44465;53.206;-6.106;2023-11-21T10:37:41;102912.94;;;20.63;49.54
58686;BME280;44465;53.206;-6.106;2023-11-21T10:40:09;102934.22;;;20.71;49.93
58686;BME280;44465;53.206;-6.106;2023-11-21T10:42:41;102926.31;;;20.63;49.72
58686;BME280;44465;53.206;-6.106;2023-11-21T10:45:08;102936.03;;;20.69;49.84
58686;BME280;44465;53.206;-6.106;2023-11-21T10:47:44;102946.69;;;20.70;49.66
58686;BME280;44465;53.206;-6.106;2023-11-21T10:50:09;102938.75;;;20.67;49.95
58686;BME280;44465;53.206;-6.106;2023-11-21T10:52:44;102951.22;;;20.68;49.99
58686;BME280;44465;53.206;-6.106;2023-11-21T10:55:19;102941.41;;;20.67;49.80
58686;BME280;44465;53.206;-6.106;2023-11-21T10:57:52;102944.06;;;20.69;49.76
58686;BME280;44465;53.206;-6.106;2023-11-21T11:00:19;102945.88;;;20.68;49.79
58686;BME280;44465;53.206;-6.106;2023-11-21T11:02:51;102954.72;;;20.70;49.62
58686;BME280;44465;53.206;-6.106;2023-11-21T11:05:20;102958.31;;;20.71;49.72
58686;BME280;44465;53.206;-6.106;2023-11-21T11:07:59;102960.16;;;20.67;49.71
58686;BME280;44465;53.206;-6.106;2023-11-21T11:10:30;102963.66;;;20.71;49.55
58686;BME280;44465;53.206;-6.106;2023-11-21T11:12:59;102969.00;;;20.71;49.69
58686;BME280;44465;53.206;-6.106;2023-11-21T11:15:25;102969.00;;;20.71;49.88
58686;BME280;44465;53.206;-6.106;2023-11-21T11:17:51;102951.22;;;20.67;49.69
58686;BME280;44465;53.206;-6.106;2023-11-21T11:20:17;102965.38;;;20.75;49.59
58686;BME280;44465;53.206;-6.106;2023-11-21T11:22:55;102957.47;;;20.67;49.66
58686;BME280;44465;53.206;-6.106;2023-11-21T11:28:34;102966.28;;;20.72;49.51
58686;BME280;44465;53.206;-6.106;2023-11-21T11:34:17;102944.97;;;20.68;49.55
58686;BME280;44465;53.206;-6.106;2023-11-21T11:39:27;102940.47;;;20.70;49.68
58686;BME280;44465;53.206;-6.106;2023-11-21T11:41:53;102925.38;;;20.66;49.79
58686;BME280;44465;53.206;-6.106;2023-11-21T11:47:31;102922.59;;;20.70;49.62
58686;BME280;44465;53.206;-6.106;2023-11-21T11:52:53;102919.00;;;20.71;49.58
58686;BME280;44465;53.206;-6.106;2023-11-21T11:55:21;102919.00;;;20.74;49.64
58686;BME280;44465;53.206;-6.106;2023-11-21T11:57:52;102922.53;;;20.73;49.53
58686;BME280;44465;53.206;-6.106;2023-11-21T12:02:50;102921.66;;;20.74;49.64
58686;BME280;44465;53.206;-6.106;2023-11-21T12:05:18;102920.72;;;20.77;49.67
58686;BME280;44465;53.206;-6.106;2023-11-21T12:07:51;102928.78;;;20.75;49.57
58686;BME280;44465;53.206;-6.106;2023-11-21T12:10:25;102926.06;;;20.79;49.50
58686;BME280;44465;53.206;-6.106;2023-11-21T12:12:53;102933.19;;;20.80;49.67
58686;BME280;44465;53.206;-6.106;2023-11-21T12:15:19;102936.78;;;20.77;49.95
58686;BME280;44465;53.206;-6.106;2023-11-21T12:17:46;102917.44;;;20.61;49.74
58686;BME280;44465;53.206;-6.106;2023-11-21T12:20:13;102953.75;;;20.77;49.61
58686;BME280;44465;53.206;-6.106;2023-11-21T12:22:48;102957.28;;;20.80;49.56
58686;BME280;44465;53.206;-6.106;2023-11-21T12:25:23;102952.84;;;20.79;49.78
58686;BME280;44465;53.206;-6.106;2023-11-21T12:27:50;102957.25;;;20.81;49.59
58686;BME280;44465;53.206;-6.106;2023-11-21T12:30:18;102955.44;;;20.82;49.68
58686;BME280;44465;53.206;-6.106;2023-11-21T12:32:45;102956.34;;;20.81;49.51
58686;BME280;44465;53.206;-6.106;2023-11-21T12:35:13;102954.50;;;20.83;49.65
58686;BME280;44465;53.206;-6.106;2023-11-21T12:37:40;102962.50;;;20.86;49.52
58686;BME280;44465;53.206;-6.106;2023-11-21T12:40:07;102953.56;;;20.87;49.93
58686;BME280;44465;53.206;-6.106;2023-11-21T12:42:39;102949.06;;;20.89;49.57
58686;BME280;44465;53.206;-6.106;2023-11-21T12:47:35;102960.59;;;20.91;49.60
58686;BME280;44465;53.206;-6.106;2023-11-21T12:50:02;102966.03;;;20.88;49.83
58686;BME280;44465;53.206;-6.106;2023-11-21T12:52:28;102966.88;;;20.90;50.21
58686;BME280;44465;53.206;-6.106;2023-11-21T12:54:54;102975.75;;;20.92;50.25
58686;BME280;44465;53.206;-6.106;2023-11-21T12:57:25;102973.72;;;21.03;49.61
58686;BME280;44465;53.206;-6.106;2023-11-21T12:59:57;102964.22;;;20.90;50.16